Nederlandse vliegveldverwachtingen (TAF)

Luchtvaartmeteorologische informatie voor operationeel gebruik en vluchtvoorbereiding is beschikbaar op www.luchtvaartmeteo.nl.

ZCZC
FT201100 EHAM     AMSTERDAM/SCHIPHOL   NLD   -3 m.
TAF EHAM 201048Z 2012/2118 26016KT 9999 SCT030
    BECMG 2017/2020 20006KT=

ZCZC
FT201100 EHBK     MAASTRICHT/MAASTRICHT-AACHEN   NLD   114 m.
TAF EHBK 201118Z 2012/2118 27010KT 9999 SCT020
    PROB30 TEMPO 2012/2018 7000 -SHRA FEW025TCU
    BECMG 2020/2023 21003KT=

ZCZC
FT201100 EHGG     GRONINGEN/EELDE   NLD   5 m.
TAF EHGG 201118Z 2012/2118 27013KT 9999 SCT025
    PROB40 TEMPO 2012/2017 7000 -SHRA SCT025CB BKN030
    BECMG 2020/2023 24005KT
    PROB30 2100/2105 7000 MIFG=

ZCZC
FT201100 EHRD     ROTTERDAM/THE HAGUE AIRPORT   NLD   -5 m.
TAF EHRD 201054Z 2012/2118 26014KT 9999 SCT030
    BECMG 2017/2020 20006KT=

ZCZC
FT201100 EHEH     EINDHOVEN/EINDHOVEN   NLD   22 m.
TAF EHEH 201123Z 2012/2118 27010KT 9999 SCT025 SCT050
    PROB30 TEMPO 2012/2014 FEW018 SCT022CB BKN030
    BECMG 2020/2023 21005KT=

ZCZC
FC201600 EHWO     WOENSDRECHT/WOENSDRECHT   NLD   19 m.
TAF EHWO 201600Z NIL=

ZCZC
FC201600 EHVK     VOLKEL/VOLKEL   NLD   21 m.
TAF EHVK 201600Z NIL=

ZCZC
FC201600 EHLW     LEEUWARDEN/LEEUWARDEN   NLD   1 m.
TAF EHLW 201648Z 2017/2105 27017G27KT 9999 SCT025 SCT050
    PROB30 TEMPO 2017/2018 FEW018 SCT022CB BKN025
    BECMG 2018/2021 29010KT=

ZCZC
FC201600 EHGR     GILZE-RIJEN/GILZE-RIJEN   NLD   14 m.
TAF EHGR 201600Z NIL=

ZCZC
FC201600 EHKD     DE KOOY/DE KOOY   NLD   1 m.
TAF EHKD 201646Z 2017/2105 27015KT 9999 FEW025 SCT030=

20/08/2017 19.15 uur LT